sensor_id;sensor_type;location;lat;lon;timestamp;pressure;altitude;pressure_sealevel;temperature;humidity
62354;BME280;48391;49.184;2.418;2023-07-29T00:00:42;61489.81;;;-142.61;100.00
62354;BME280;48391;49.184;2.418;2023-07-29T00:03:09;61489.81;;;-142.61;100.00
62354;BME280;48391;49.184;2.418;2023-07-29T00:05:36;61489.81;;;-142.61;100.00
62354;BME280;48391;49.184;2.418;2023-07-29T00:08:03;61489.81;;;-142.61;100.00
62354;BME280;48391;49.184;2.418;2023-07-29T00:10:35;61489.81;;;-142.61;100.00
62354;BME280;48391;49.184;2.418;2023-07-29T00:13:01;61489.81;;;-142.61;100.00
62354;BME280;48391;49.184;2.418;2023-07-29T00:15:27;61489.81;;;-142.61;100.00
62354;BME280;48391;49.184;2.418;2023-07-29T00:17:54;61489.81;;;-142.61;100.00
62354;BME280;48391;49.184;2.418;2023-07-29T00:20:20;61489.81;;;-142.61;100.00
62354;BME280;48391;49.184;2.418;2023-07-29T00:22:46;61489.81;;;-142.61;100.00
62354;BME280;48391;49.184;2.418;2023-07-29T05:19:21;100616.72;;;18.18;100.00
62354;BME280;48391;49.184;2.418;2023-07-29T05:21:47;100611.91;;;18.34;100.00
62354;BME280;48391;49.184;2.418;2023-07-29T05:24:13;100619.50;;;18.45;100.00
62354;BME280;48391;49.184;2.418;2023-07-29T05:26:39;100610.19;;;18.48;100.00
62354;BME280;48391;49.184;2.418;2023-07-29T05:29:05;100608.13;;;18.50;100.00
62354;BME280;48391;49.184;2.418;2023-07-29T05:31:32;100610.19;;;18.48;100.00
62354;BME280;48391;49.184;2.418;2023-07-29T05:33:59;100625.31;;;18.49;100.00
62354;BME280;48391;49.184;2.418;2023-07-29T05:36:25;100623.63;;;18.69;100.00
62354;BME280;48391;49.184;2.418;2023-07-29T05:38:53;100610.25;;;18.82;100.00
62354;BME280;48391;49.184;2.418;2023-07-29T05:41:20;100614.66;;;18.90;100.00
62354;BME280;48391;49.184;2.418;2023-07-29T05:43:47;100616.94;;;18.93;100.00
62354;BME280;48391;49.184;2.418;2023-07-29T05:46:15;100620.75;;;18.98;100.00
62354;BME280;48391;49.184;2.418;2023-07-29T05:48:42;100624.72;;;19.02;100.00
62354;BME280;48391;49.184;2.418;2023-07-29T05:51:10;100625.22;;;19.19;100.00
62354;BME280;48391;49.184;2.418;2023-07-29T05:53:37;100636.28;;;19.24;100.00
62354;BME280;48391;49.184;2.418;2023-07-29T05:56:05;100633.16;;;19.27;100.00
62354;BME280;48391;49.184;2.418;2023-07-29T05:58:33;100627.16;;;19.31;100.00
62354;BME280;48391;49.184;2.418;2023-07-29T06:01:00;100626.66;;;19.49;100.00
62354;BME280;48391;49.184;2.418;2023-07-29T06:03:28;100634.13;;;19.47;100.00
62354;BME280;48391;49.184;2.418;2023-07-29T06:05:56;100635.22;;;19.59;100.00
62354;BME280;48391;49.184;2.418;2023-07-29T06:08:23;100637.38;;;19.70;100.00
62354;BME280;48391;49.184;2.418;2023-07-29T06:10:50;100629.66;;;19.67;100.00
62354;BME280;48391;49.184;2.418;2023-07-29T06:13:16;100637.38;;;19.70;100.00
62354;BME280;48391;49.184;2.418;2023-07-29T06:15:42;100633.31;;;20.07;100.00
62354;BME280;48391;49.184;2.418;2023-07-29T06:18:09;100639.59;;;20.20;100.00
62354;BME280;48391;49.184;2.418;2023-07-29T06:20:35;100644.34;;;20.12;100.00
62354;BME280;48391;49.184;2.418;2023-07-29T06:23:01;100651.66;;;20.18;100.00
62354;BME280;48391;49.184;2.418;2023-07-29T06:25:28;100649.94;;;20.10;100.00
62354;BME280;48391;49.184;2.418;2023-07-29T06:27:54;100642.34;;;20.46;100.00
62354;BME280;48391;49.184;2.418;2023-07-29T06:30:20;100641.31;;;20.61;100.00
62354;BME280;48391;49.184;2.418;2023-07-29T06:32:46;100637.56;;;20.88;100.00
62354;BME280;48391;49.184;2.418;2023-07-29T06:35:13;100632.91;;;21.34;100.00
62354;BME280;48391;49.184;2.418;2023-07-29T06:37:41;61489.81;;;-142.61;100.00
62354;BME280;48391;49.184;2.418;2023-07-29T06:40:09;61489.81;;;-142.61;100.00
62354;BME280;48391;49.184;2.418;2023-07-29T06:42:37;61489.81;;;-142.61;100.00
62354;BME280;48391;49.184;2.418;2023-07-29T06:45:06;61489.81;;;-142.61;100.00
62354;BME280;48391;49.184;2.418;2023-07-29T06:47:34;61489.81;;;-142.61;100.00
62354;BME280;48391;49.184;2.418;2023-07-29T06:50:03;61489.81;;;-142.61;100.00
62354;BME280;48391;49.184;2.418;2023-07-29T06:52:29;61489.81;;;-142.61;100.00
62354;BME280;48391;49.184;2.418;2023-07-29T06:54:57;61489.81;;;-142.61;100.00
62354;BME280;48391;49.184;2.418;2023-07-29T06:57:24;61489.81;;;-142.61;100.00
62354;BME280;48391;49.184;2.418;2023-07-29T06:59:53;61489.81;;;-142.61;100.00
62354;BME280;48391;49.184;2.418;2023-07-29T07:02:20;61489.81;;;-142.61;100.00
62354;BME280;48391;49.184;2.418;2023-07-29T07:04:47;61489.81;;;-142.61;100.00
62354;BME280;48391;49.184;2.418;2023-07-29T07:09:43;100617.09;;;23.18;nan
62354;BME280;48391;49.184;2.418;2023-07-29T07:14:39;61489.81;;;-142.61;100.00
62354;BME280;48391;49.184;2.418;2023-07-29T07:17:08;100625.59;;;22.61;nan
62354;BME280;48391;49.184;2.418;2023-07-29T07:20:37;100623.47;;;22.00;nan
62354;BME280;48391;49.184;2.418;2023-07-29T07:23:35;100629.47;;;21.71;100.00
62354;BME280;48391;49.184;2.418;2023-07-29T07:26:02;100631.81;;;21.55;100.00
62354;BME280;48391;49.184;2.418;2023-07-29T07:28:29;100641.81;;;21.61;100.00
62354;BME280;48391;49.184;2.418;2023-07-29T07:30:55;100640.25;;;21.84;100.00
62354;BME280;48391;49.184;2.418;2023-07-29T07:33:22;100641.56;;;22.13;100.00
62354;BME280;48391;49.184;2.418;2023-07-29T07:35:48;100643.28;;;22.07;100.00
62354;BME280;48391;49.184;2.418;2023-07-29T07:38:14;100641.56;;;21.62;100.00
62354;BME280;48391;49.184;2.418;2023-07-29T07:40:40;61489.81;;;-142.61;100.00
62354;BME280;48391;49.184;2.418;2023-07-29T07:43:07;100667.28;;;21.47;nan
62354;BME280;48391;49.184;2.418;2023-07-29T07:47:39;100654.63;;;21.14;100.00
62354;BME280;48391;49.184;2.418;2023-07-29T07:50:05;100678.59;;;20.78;nan
62354;BME280;48391;49.184;2.418;2023-07-29T07:53:35;100654.25;;;21.11;100.00
62354;BME280;48391;49.184;2.418;2023-07-29T07:56:01;100660.28;;;21.00;100.00
62354;BME280;48391;49.184;2.418;2023-07-29T07:58:27;100655.88;;;21.18;100.00
62354;BME280;48391;49.184;2.418;2023-07-29T08:01:04;100659.03;;;21.15;100.00
62354;BME280;48391;49.184;2.418;2023-07-29T08:03:31;100660.44;;;21.31;100.00
62354;BME280;48391;49.184;2.418;2023-07-29T08:05:58;100660.44;;;21.31;100.00
62354;BME280;48391;49.184;2.418;2023-07-29T08:08:27;100664.44;;;21.22;100.00
62354;BME280;48391;49.184;2.418;2023-07-29T08:10:54;100657.41;;;21.72;100.00
62354;BME280;48391;49.184;2.418;2023-07-29T08:13:22;100658.44;;;22.22;100.00
62354;BME280;48391;49.184;2.418;2023-07-29T08:15:49;100660.28;;;22.28;nan
62354;BME280;48391;49.184;2.418;2023-07-29T08:20:35;100642.06;;;22.66;100.00
62354;BME280;48391;49.184;2.418;2023-07-29T08:23:01;100647.53;;;22.28;100.00
62354;BME280;48391;49.184;2.418;2023-07-29T08:25:29;100648.72;;;22.39;100.00
62354;BME280;48391;49.184;2.418;2023-07-29T08:27:55;100647.56;;;22.53;100.00
62354;BME280;48391;49.184;2.418;2023-07-29T08:30:21;61489.81;;;-142.61;100.00
62354;BME280;48391;49.184;2.418;2023-07-29T08:32:47;100645.94;;;22.76;nan
62354;BME280;48391;49.184;2.418;2023-07-29T08:35:37;100644.53;;;22.36;100.00
62354;BME280;48391;49.184;2.418;2023-07-29T08:38:03;100652.50;;;22.69;nan
62354;BME280;48391;49.184;2.418;2023-07-29T08:41:41;100651.94;;;22.85;nan
62354;BME280;48391;49.184;2.418;2023-07-29T08:44:42;100645.31;;;22.50;nan
62354;BME280;48391;49.184;2.418;2023-07-29T08:47:36;61489.81;;;-142.61;100.00
62354;BME280;48391;49.184;2.418;2023-07-29T08:50:03;100641.91;;;22.61;nan
62354;BME280;48391;49.184;2.418;2023-07-29T08:53:35;100645.38;;;22.92;100.00
62354;BME280;48391;49.184;2.418;2023-07-29T08:56:02;100640.50;;;23.01;nan
62354;BME280;48391;49.184;2.418;2023-07-29T08:59:35;100636.81;;;22.95;100.00
62354;BME280;48391;49.184;2.418;2023-07-29T09:02:01;100639.22;;;23.22;nan
62354;BME280;48391;49.184;2.418;2023-07-29T09:05:35;100635.94;;;23.56;100.00
62354;BME280;48391;49.184;2.418;2023-07-29T09:08:02;100636.94;;;23.79;nan
62354;BME280;48391;49.184;2.418;2023-07-29T09:11:35;100628.94;;;23.48;100.00
62354;BME280;48391;49.184;2.418;2023-07-29T09:14:02;100628.41;;;23.88;100.00
62354;BME280;48391;49.184;2.418;2023-07-29T09:16:28;100615.81;;;23.93;100.00
62354;BME280;48391;49.184;2.418;2023-07-29T09:18:54;61489.81;;;-142.61;100.00
62354;BME280;48391;49.184;2.418;2023-07-29T09:21:25;100621.84;;;24.13;nan
62354;BME280;48391;49.184;2.418;2023-07-29T09:23:52;100624.19;;;23.92;nan
62354;BME280;48391;49.184;2.418;2023-07-29T09:26:35;61489.81;;;-142.61;100.00
62354;BME280;48391;49.184;2.418;2023-07-29T09:29:01;100619.97;;;24.25;nan
62354;BME280;48391;49.184;2.418;2023-07-29T09:32:40;61489.81;;;-142.61;100.00
62354;BME280;48391;49.184;2.418;2023-07-29T09:35:11;61489.81;;;-142.61;100.00
62354;BME280;48391;49.184;2.418;2023-07-29T09:37:39;61489.81;;;-142.61;100.00
62354;BME280;48391;49.184;2.418;2023-07-29T09:40:06;61489.81;;;-142.61;100.00
62354;BME280;48391;49.184;2.418;2023-07-29T09:42:39;61489.81;;;-142.61;100.00
62354;BME280;48391;49.184;2.418;2023-07-29T09:45:05;61489.81;;;-142.61;100.00
62354;BME280;48391;49.184;2.418;2023-07-29T09:47:31;61489.81;;;-142.61;100.00
62354;BME280;48391;49.184;2.418;2023-07-29T09:49:58;61489.81;;;-142.61;100.00
62354;BME280;48391;49.184;2.418;2023-07-29T09:52:25;61489.81;;;-142.61;100.00
62354;BME280;48391;49.184;2.418;2023-07-29T09:54:52;61489.81;;;-142.61;100.00
62354;BME280;48391;49.184;2.418;2023-07-29T09:57:19;61489.81;;;-142.61;100.00
62354;BME280;48391;49.184;2.418;2023-07-29T09:59:55;61489.81;;;-142.61;100.00
62354;BME280;48391;49.184;2.418;2023-07-29T10:02:22;61489.81;;;-142.61;100.00
62354;BME280;48391;49.184;2.418;2023-07-29T10:04:48;61489.81;;;-142.61;100.00
62354;BME280;48391;49.184;2.418;2023-07-29T10:07:15;61489.81;;;-142.61;100.00
62354;BME280;48391;49.184;2.418;2023-07-29T10:09:42;61489.81;;;-142.61;100.00
62354;BME280;48391;49.184;2.418;2023-07-29T10:12:10;61489.81;;;-142.61;100.00
62354;BME280;48391;49.184;2.418;2023-07-29T10:14:38;61489.81;;;-142.61;100.00
62354;BME280;48391;49.184;2.418;2023-07-29T10:17:05;61489.81;;;-142.61;100.00
62354;BME280;48391;49.184;2.418;2023-07-29T10:19:32;61489.81;;;-142.61;100.00
62354;BME280;48391;49.184;2.418;2023-07-29T10:22:00;61489.81;;;-142.61;100.00
62354;BME280;48391;49.184;2.418;2023-07-29T10:24:33;61489.81;;;-142.61;100.00
62354;BME280;48391;49.184;2.418;2023-07-29T10:27:00;61489.81;;;-142.61;100.00
62354;BME280;48391;49.184;2.418;2023-07-29T10:29:38;61489.81;;;-142.61;100.00
62354;BME280;48391;49.184;2.418;2023-07-29T10:32:05;61489.81;;;-142.61;100.00
62354;BME280;48391;49.184;2.418;2023-07-29T10:34:33;61489.81;;;-142.61;100.00
62354;BME280;48391;49.184;2.418;2023-07-29T10:37:01;61489.81;;;-142.61;100.00
62354;BME280;48391;49.184;2.418;2023-07-29T10:39:32;61489.81;;;-142.61;100.00
62354;BME280;48391;49.184;2.418;2023-07-29T10:42:06;61489.81;;;-142.61;100.00
62354;BME280;48391;49.184;2.418;2023-07-29T10:47:27;61489.81;;;-142.61;100.00
62354;BME280;48391;49.184;2.418;2023-07-29T10:49:59;61489.81;;;-142.61;100.00
62354;BME280;48391;49.184;2.418;2023-07-29T10:52:40;61489.81;;;-142.61;100.00
62354;BME280;48391;49.184;2.418;2023-07-29T10:55:33;61489.81;;;-142.61;100.00
62354;BME280;48391;49.184;2.418;2023-07-29T10:58:13;61489.81;;;-142.61;100.00
62354;BME280;48391;49.184;2.418;2023-07-29T11:00:45;61489.81;;;-142.61;100.00
62354;BME280;48391;49.184;2.418;2023-07-29T11:03:16;61489.81;;;-142.61;100.00
62354;BME280;48391;49.184;2.418;2023-07-29T11:05:50;61489.81;;;-142.61;100.00
62354;BME280;48391;49.184;2.418;2023-07-29T11:08:30;61489.81;;;-142.61;100.00
62354;BME280;48391;49.184;2.418;2023-07-29T11:11:05;61489.81;;;-142.61;100.00
62354;BME280;48391;49.184;2.418;2023-07-29T11:13:36;61489.81;;;-142.61;100.00
62354;BME280;48391;49.184;2.418;2023-07-29T11:16:04;61489.81;;;-142.61;100.00
62354;BME280;48391;49.184;2.418;2023-07-29T11:18:35;61489.81;;;-142.61;100.00
62354;BME280;48391;49.184;2.418;2023-07-29T11:21:03;61489.81;;;-142.61;100.00
62354;BME280;48391;49.184;2.418;2023-07-29T11:23:34;61489.81;;;-142.61;100.00
62354;BME280;48391;49.184;2.418;2023-07-29T11:26:07;61489.81;;;-142.61;100.00
62354;BME280;48391;49.184;2.418;2023-07-29T11:28:38;61489.81;;;-142.61;100.00
62354;BME280;48391;49.184;2.418;2023-07-29T11:31:08;61489.81;;;-142.61;100.00
62354;BME280;48391;49.184;2.418;2023-07-29T11:33:38;61489.81;;;-142.61;100.00
62354;BME280;48391;49.184;2.418;2023-07-29T11:36:04;61489.81;;;-142.61;100.00
62354;BME280;48391;49.184;2.418;2023-07-29T11:38:57;61489.81;;;-142.61;100.00
62354;BME280;48391;49.184;2.418;2023-07-29T11:44:47;61489.81;;;-142.61;100.00
62354;BME280;48391;49.184;2.418;2023-07-29T11:47:14;61489.81;;;-142.61;100.00
62354;BME280;48391;49.184;2.418;2023-07-29T11:49:41;61489.81;;;-142.61;100.00
62354;BME280;48391;49.184;2.418;2023-07-29T11:52:11;61489.81;;;-142.61;100.00
62354;BME280;48391;49.184;2.418;2023-07-29T11:54:38;61489.81;;;-142.61;100.00
62354;BME280;48391;49.184;2.418;2023-07-29T11:57:07;61489.81;;;-142.61;100.00
62354;BME280;48391;49.184;2.418;2023-07-29T11:59:37;61489.81;;;-142.61;100.00
62354;BME280;48391;49.184;2.418;2023-07-29T12:02:11;61489.81;;;-142.61;100.00
62354;BME280;48391;49.184;2.418;2023-07-29T12:04:39;61489.81;;;-142.61;100.00
62354;BME280;48391;49.184;2.418;2023-07-29T12:07:06;61489.81;;;-142.61;100.00
62354;BME280;48391;49.184;2.418;2023-07-29T12:09:33;61489.81;;;-142.61;100.00
62354;BME280;48391;49.184;2.418;2023-07-29T12:12:01;61489.81;;;-142.61;100.00
62354;BME280;48391;49.184;2.418;2023-07-29T12:14:31;61489.81;;;-142.61;100.00
62354;BME280;48391;49.184;2.418;2023-07-29T12:17:00;61489.81;;;-142.61;100.00
62354;BME280;48391;49.184;2.418;2023-07-29T12:19:35;61489.81;;;-142.61;100.00
62354;BME280;48391;49.184;2.418;2023-07-29T12:22:03;61489.81;;;-142.61;100.00
62354;BME280;48391;49.184;2.418;2023-07-29T12:24:34;61489.81;;;-142.61;100.00
62354;BME280;48391;49.184;2.418;2023-07-29T12:27:01;61489.81;;;-142.61;100.00
62354;BME280;48391;49.184;2.418;2023-07-29T12:29:27;61489.81;;;-142.61;100.00
62354;BME280;48391;49.184;2.418;2023-07-29T12:32:01;61489.81;;;-142.61;100.00
62354;BME280;48391;49.184;2.418;2023-07-29T12:34:29;61489.81;;;-142.61;100.00
62354;BME280;48391;49.184;2.418;2023-07-29T12:36:57;61489.81;;;-142.61;100.00
62354;BME280;48391;49.184;2.418;2023-07-29T12:39:34;61489.81;;;-142.61;100.00
62354;BME280;48391;49.184;2.418;2023-07-29T12:42:02;61489.81;;;-142.61;100.00
62354;BME280;48391;49.184;2.418;2023-07-29T12:44:33;61489.81;;;-142.61;100.00
62354;BME280;48391;49.184;2.418;2023-07-29T12:47:04;61489.81;;;-142.61;100.00
62354;BME280;48391;49.184;2.418;2023-07-29T12:49:31;61489.81;;;-142.61;100.00
62354;BME280;48391;49.184;2.418;2023-07-29T12:51:59;61489.81;;;-142.61;100.00
62354;BME280;48391;49.184;2.418;2023-07-29T12:54:25;61489.81;;;-142.61;100.00
62354;BME280;48391;49.184;2.418;2023-07-29T12:56:52;61489.81;;;-142.61;100.00
62354;BME280;48391;49.184;2.418;2023-07-29T12:59:18;61489.81;;;-142.61;100.00
62354;BME280;48391;49.184;2.418;2023-07-29T13:01:44;61489.81;;;-142.61;100.00
62354;BME280;48391;49.184;2.418;2023-07-29T13:04:11;61489.81;;;-142.61;100.00
62354;BME280;48391;49.184;2.418;2023-07-29T13:06:37;61489.81;;;-142.61;100.00
62354;BME280;48391;49.184;2.418;2023-07-29T13:09:03;61489.81;;;-142.61;100.00
62354;BME280;48391;49.184;2.418;2023-07-29T13:11:31;61489.81;;;-142.61;100.00
62354;BME280;48391;49.184;2.418;2023-07-29T13:13:58;61489.81;;;-142.61;100.00
62354;BME280;48391;49.184;2.418;2023-07-29T13:16:26;61489.81;;;-142.61;100.00
62354;BME280;48391;49.184;2.418;2023-07-29T13:18:53;61489.81;;;-142.61;100.00
62354;BME280;48391;49.184;2.418;2023-07-29T13:21:19;61489.81;;;-142.61;100.00
62354;BME280;48391;49.184;2.418;2023-07-29T13:23:45;61489.81;;;-142.61;100.00
62354;BME280;48391;49.184;2.418;2023-07-29T13:26:11;61489.81;;;-142.61;100.00
62354;BME280;48391;49.184;2.418;2023-07-29T13:28:37;61489.81;;;-142.61;100.00
62354;BME280;48391;49.184;2.418;2023-07-29T13:31:03;61489.81;;;-142.61;100.00
62354;BME280;48391;49.184;2.418;2023-07-29T13:33:30;61489.81;;;-142.61;100.00
62354;BME280;48391;49.184;2.418;2023-07-29T13:36:00;61489.81;;;-142.61;100.00
62354;BME280;48391;49.184;2.418;2023-07-29T13:38:28;61489.81;;;-142.61;100.00
62354;BME280;48391;49.184;2.418;2023-07-29T13:40:54;61489.81;;;-142.61;100.00
62354;BME280;48391;49.184;2.418;2023-07-29T13:43:21;61489.81;;;-142.61;100.00
62354;BME280;48391;49.184;2.418;2023-07-29T13:45:47;61489.81;;;-142.61;100.00
62354;BME280;48391;49.184;2.418;2023-07-29T13:48:15;61489.81;;;-142.61;100.00
62354;BME280;48391;49.184;2.418;2023-07-29T13:50:42;61489.81;;;-142.61;100.00
62354;BME280;48391;49.184;2.418;2023-07-29T13:53:09;61489.81;;;-142.61;100.00
62354;BME280;48391;49.184;2.418;2023-07-29T13:55:36;61489.81;;;-142.61;100.00
62354;BME280;48391;49.184;2.418;2023-07-29T13:58:02;61489.81;;;-142.61;100.00
62354;BME280;48391;49.184;2.418;2023-07-29T14:00:29;61489.81;;;-142.61;100.00
62354;BME280;48391;49.184;2.418;2023-07-29T14:02:55;61489.81;;;-142.61;100.00
62354;BME280;48391;49.184;2.418;2023-07-29T14:05:21;61489.81;;;-142.61;100.00
62354;BME280;48391;49.184;2.418;2023-07-29T14:07:47;61489.81;;;-142.61;100.00
62354;BME280;48391;49.184;2.418;2023-07-29T14:10:13;61489.81;;;-142.61;100.00
62354;BME280;48391;49.184;2.418;2023-07-29T14:12:39;61489.81;;;-142.61;100.00
62354;BME280;48391;49.184;2.418;2023-07-29T14:15:06;61489.81;;;-142.61;100.00
62354;BME280;48391;49.184;2.418;2023-07-29T14:17:32;61489.81;;;-142.61;100.00
62354;BME280;48391;49.184;2.418;2023-07-29T14:19:59;61489.81;;;-142.61;100.00
62354;BME280;48391;49.184;2.418;2023-07-29T14:22:25;61489.81;;;-142.61;100.00
62354;BME280;48391;49.184;2.418;2023-07-29T14:24:51;61489.81;;;-142.61;100.00
62354;BME280;48391;49.184;2.418;2023-07-29T14:27:17;61489.81;;;-142.61;100.00
62354;BME280;48391;49.184;2.418;2023-07-29T14:29:43;61489.81;;;-142.61;100.00
62354;BME280;48391;49.184;2.418;2023-07-29T14:32:10;61489.81;;;-142.61;100.00
62354;BME280;48391;49.184;2.418;2023-07-29T14:34:36;61489.81;;;-142.61;100.00
62354;BME280;48391;49.184;2.418;2023-07-29T14:37:02;61489.81;;;-142.61;100.00
62354;BME280;48391;49.184;2.418;2023-07-29T14:39:28;61489.81;;;-142.61;100.00
62354;BME280;48391;49.184;2.418;2023-07-29T14:41:54;61489.81;;;-142.61;100.00
62354;BME280;48391;49.184;2.418;2023-07-29T14:44:20;61489.81;;;-142.61;100.00
62354;BME280;48391;49.184;2.418;2023-07-29T14:46:46;61489.81;;;-142.61;100.00
62354;BME280;48391;49.184;2.418;2023-07-29T14:49:13;61489.81;;;-142.61;100.00
62354;BME280;48391;49.184;2.418;2023-07-29T14:51:39;61489.81;;;-142.61;100.00
62354;BME280;48391;49.184;2.418;2023-07-29T14:54:05;61489.81;;;-142.61;100.00
62354;BME280;48391;49.184;2.418;2023-07-29T14:56:31;61489.81;;;-142.61;100.00
62354;BME280;48391;49.184;2.418;2023-07-29T14:58:57;61489.81;;;-142.61;100.00
62354;BME280;48391;49.184;2.418;2023-07-29T15:01:24;61489.81;;;-142.61;100.00
62354;BME280;48391;49.184;2.418;2023-07-29T15:03:50;61489.81;;;-142.61;100.00
62354;BME280;48391;49.184;2.418;2023-07-29T15:06:16;61489.81;;;-142.61;100.00
62354;BME280;48391;49.184;2.418;2023-07-29T15:08:42;61489.81;;;-142.61;100.00
62354;BME280;48391;49.184;2.418;2023-07-29T15:11:08;61489.81;;;-142.61;100.00
62354;BME280;48391;49.184;2.418;2023-07-29T15:13:34;61489.81;;;-142.61;100.00
62354;BME280;48391;49.184;2.418;2023-07-29T15:16:00;61489.81;;;-142.61;100.00
62354;BME280;48391;49.184;2.418;2023-07-29T15:18:26;61489.81;;;-142.61;100.00
62354;BME280;48391;49.184;2.418;2023-07-29T15:20:57;61489.81;;;-142.61;100.00
62354;BME280;48391;49.184;2.418;2023-07-29T15:23:23;61489.81;;;-142.61;100.00
62354;BME280;48391;49.184;2.418;2023-07-29T15:25:49;61489.81;;;-142.61;100.00
62354;BME280;48391;49.184;2.418;2023-07-29T15:28:16;61489.81;;;-142.61;100.00
62354;BME280;48391;49.184;2.418;2023-07-29T15:30:42;61489.81;;;-142.61;100.00
62354;BME280;48391;49.184;2.418;2023-07-29T15:33:09;61489.81;;;-142.61;100.00
62354;BME280;48391;49.184;2.418;2023-07-29T15:35:39;61489.81;;;-142.61;100.00
62354;BME280;48391;49.184;2.418;2023-07-29T15:38:05;61489.81;;;-142.61;100.00
62354;BME280;48391;49.184;2.418;2023-07-29T15:40:32;61489.81;;;-142.61;100.00
62354;BME280;48391;49.184;2.418;2023-07-29T15:42:58;61489.81;;;-142.61;100.00
62354;BME280;48391;49.184;2.418;2023-07-29T15:45:25;61489.81;;;-142.61;100.00
62354;BME280;48391;49.184;2.418;2023-07-29T15:47:51;61489.81;;;-142.61;100.00
62354;BME280;48391;49.184;2.418;2023-07-29T15:50:17;61489.81;;;-142.61;100.00
62354;BME280;48391;49.184;2.418;2023-07-29T15:52:43;61489.81;;;-142.61;100.00
62354;BME280;48391;49.184;2.418;2023-07-29T15:55:09;61489.81;;;-142.61;100.00
62354;BME280;48391;49.184;2.418;2023-07-29T15:57:36;61489.81;;;-142.61;100.00
62354;BME280;48391;49.184;2.418;2023-07-29T16:00:03;61489.81;;;-142.61;100.00
62354;BME280;48391;49.184;2.418;2023-07-29T16:02:30;61489.81;;;-142.61;100.00
62354;BME280;48391;49.184;2.418;2023-07-29T16:04:56;61489.81;;;-142.61;100.00
62354;BME280;48391;49.184;2.418;2023-07-29T16:07:22;61489.81;;;-142.61;100.00
62354;BME280;48391;49.184;2.418;2023-07-29T16:09:48;61489.81;;;-142.61;100.00
62354;BME280;48391;49.184;2.418;2023-07-29T16:12:15;61489.81;;;-142.61;100.00
62354;BME280;48391;49.184;2.418;2023-07-29T16:14:41;61489.81;;;-142.61;100.00
62354;BME280;48391;49.184;2.418;2023-07-29T16:17:07;61489.81;;;-142.61;100.00
62354;BME280;48391;49.184;2.418;2023-07-29T16:19:52;61489.81;;;-142.61;100.00
62354;BME280;48391;49.184;2.418;2023-07-29T16:22:19;61489.81;;;-142.61;100.00
62354;BME280;48391;49.184;2.418;2023-07-29T16:24:45;61489.81;;;-142.61;100.00
62354;BME280;48391;49.184;2.418;2023-07-29T16:27:11;61489.81;;;-142.61;100.00
62354;BME280;48391;49.184;2.418;2023-07-29T16:29:37;61489.81;;;-142.61;100.00
62354;BME280;48391;49.184;2.418;2023-07-29T16:32:04;61489.81;;;-142.61;100.00
62354;BME280;48391;49.184;2.418;2023-07-29T16:34:30;61489.81;;;-142.61;100.00
62354;BME280;48391;49.184;2.418;2023-07-29T16:36:56;61489.81;;;-142.61;100.00
62354;BME280;48391;49.184;2.418;2023-07-29T16:39:22;61489.81;;;-142.61;100.00
62354;BME280;48391;49.184;2.418;2023-07-29T16:41:49;61489.81;;;-142.61;100.00
62354;BME280;48391;49.184;2.418;2023-07-29T16:44:15;61489.81;;;-142.61;100.00
62354;BME280;48391;49.184;2.418;2023-07-29T16:46:41;61489.81;;;-142.61;100.00
62354;BME280;48391;49.184;2.418;2023-07-29T16:49:07;61489.81;;;-142.61;100.00
62354;BME280;48391;49.184;2.418;2023-07-29T16:51:33;61489.81;;;-142.61;100.00
62354;BME280;48391;49.184;2.418;2023-07-29T16:54:00;61489.81;;;-142.61;100.00
62354;BME280;48391;49.184;2.418;2023-07-29T16:56:26;61489.81;;;-142.61;100.00
62354;BME280;48391;49.184;2.418;2023-07-29T16:58:52;61489.81;;;-142.61;100.00
62354;BME280;48391;49.184;2.418;2023-07-29T17:01:18;61489.81;;;-142.61;100.00
62354;BME280;48391;49.184;2.418;2023-07-29T17:03:44;61489.81;;;-142.61;100.00
62354;BME280;48391;49.184;2.418;2023-07-29T17:06:10;61489.81;;;-142.61;100.00
62354;BME280;48391;49.184;2.418;2023-07-29T17:08:37;61489.81;;;-142.61;100.00
62354;BME280;48391;49.184;2.418;2023-07-29T17:11:03;61489.81;;;-142.61;100.00
62354;BME280;48391;49.184;2.418;2023-07-29T17:13:29;61489.81;;;-142.61;100.00
62354;BME280;48391;49.184;2.418;2023-07-29T17:15:55;61489.81;;;-142.61;100.00
62354;BME280;48391;49.184;2.418;2023-07-29T17:18:21;61489.81;;;-142.61;100.00
62354;BME280;48391;49.184;2.418;2023-07-29T17:20:47;61489.81;;;-142.61;100.00
62354;BME280;48391;49.184;2.418;2023-07-29T17:23:14;61489.81;;;-142.61;100.00
62354;BME280;48391;49.184;2.418;2023-07-29T17:25:40;61489.81;;;-142.61;100.00
62354;BME280;48391;49.184;2.418;2023-07-29T17:28:06;61489.81;;;-142.61;100.00
62354;BME280;48391;49.184;2.418;2023-07-29T17:30:33;61489.81;;;-142.61;100.00
62354;BME280;48391;49.184;2.418;2023-07-29T17:33:21;61489.81;;;-142.61;100.00
62354;BME280;48391;49.184;2.418;2023-07-29T17:35:47;61489.81;;;-142.61;100.00
62354;BME280;48391;49.184;2.418;2023-07-29T17:38:14;61489.81;;;-142.61;100.00
62354;BME280;48391;49.184;2.418;2023-07-29T17:40:40;61489.81;;;-142.61;100.00
62354;BME280;48391;49.184;2.418;2023-07-29T17:43:07;61489.81;;;-142.61;100.00
62354;BME280;48391;49.184;2.418;2023-07-29T17:45:33;61489.81;;;-142.61;100.00
62354;BME280;48391;49.184;2.418;2023-07-29T17:47:59;61489.81;;;-142.61;100.00
62354;BME280;48391;49.184;2.418;2023-07-29T17:50:25;61489.81;;;-142.61;100.00
62354;BME280;48391;49.184;2.418;2023-07-29T17:52:53;61489.81;;;-142.61;100.00
62354;BME280;48391;49.184;2.418;2023-07-29T17:55:21;61489.81;;;-142.61;100.00